createdAt,value
2023-02-09T00:02:35.000Z,13.31
2023-02-09T00:07:34.000Z,13.62
2023-02-09T00:12:34.000Z,13.88
2023-02-09T00:17:35.000Z,13.88
2023-02-09T00:22:35.000Z,13.45
2023-02-09T00:27:35.000Z,12.91
2023-02-09T00:32:34.000Z,12.4
2023-02-09T00:37:35.000Z,12.92
2023-02-09T00:42:35.000Z,12.45
2023-02-09T00:47:34.000Z,12.3
2023-02-09T00:52:35.000Z,12.44
2023-02-09T00:57:34.000Z,12.44
2023-02-09T01:02:35.000Z,11.67
2023-02-09T01:07:35.000Z,11.89
2023-02-09T01:12:35.000Z,12
2023-02-09T01:17:34.000Z,12.35
2023-02-09T01:22:34.000Z,11.39
2023-02-09T01:27:34.000Z,11.21
2023-02-09T01:32:35.000Z,11.28
2023-02-09T01:37:34.000Z,10.82
2023-02-09T01:42:35.000Z,12.41
2023-02-09T01:47:34.000Z,17.36
2023-02-09T01:52:35.000Z,12.68
2023-02-09T01:57:35.000Z,10.99
2023-02-09T02:02:35.000Z,11.25
2023-02-09T02:07:34.000Z,11.25
2023-02-09T02:12:34.000Z,11.52
2023-02-09T02:17:34.000Z,11.05
2023-02-09T02:22:35.000Z,11.22
2023-02-09T02:27:35.000Z,11.39
2023-02-09T02:32:34.000Z,11.37
2023-02-09T02:37:35.000Z,11.36
2023-02-09T02:42:34.000Z,11.26
2023-02-09T02:47:35.000Z,11.4
2023-02-09T02:52:34.000Z,12.28
2023-02-09T02:57:35.000Z,11.25
2023-02-09T03:02:34.000Z,11.09
2023-02-09T03:07:35.000Z,11.31
2023-02-09T03:12:35.000Z,11.53
2023-02-09T03:17:35.000Z,11.42
2023-02-09T03:22:35.000Z,12.34
2023-02-09T03:27:34.000Z,12.34
2023-02-09T03:32:35.000Z,11.45
2023-02-09T03:37:35.000Z,11.44
2023-02-09T03:42:35.000Z,11.96
2023-02-09T03:47:35.000Z,12.46
2023-02-09T03:52:35.000Z,12.7
2023-02-09T03:57:34.000Z,12.08
2023-02-09T04:02:35.000Z,12.31
2023-02-09T04:07:35.000Z,13.17
2023-02-09T04:12:35.000Z,13.03
2023-02-09T04:17:35.000Z,12.2
2023-02-09T04:22:35.000Z,12.44
2023-02-09T04:27:34.000Z,12.54
2023-02-09T04:32:35.000Z,12.54
2023-02-09T04:37:34.000Z,12.57
2023-02-09T04:42:35.000Z,12.67
2023-02-09T04:47:35.000Z,12.33
2023-02-09T04:52:35.000Z,12.52
2023-02-09T04:57:35.000Z,12.49
2023-02-09T05:02:35.000Z,13.01
2023-02-09T05:07:35.000Z,12.95
2023-02-09T05:12:35.000Z,13.98
2023-02-09T05:17:34.000Z,13.52
2023-02-09T05:22:35.000Z,13.6
2023-02-09T05:27:34.000Z,13.51
2023-02-09T05:32:35.000Z,13.86
2023-02-09T05:37:34.000Z,14.03
2023-02-09T05:42:35.000Z,13.78
2023-02-09T05:47:35.000Z,13.78
2023-02-09T05:52:35.000Z,13.76
2023-02-09T05:57:35.000Z,13.68
2023-02-09T06:02:35.000Z,13.65
2023-02-09T06:07:34.000Z,13.33
2023-02-09T06:12:34.000Z,13.42
2023-02-09T06:17:34.000Z,13.7
2023-02-09T06:22:34.000Z,13.47
2023-02-09T06:27:35.000Z,12.71
2023-02-09T06:32:34.000Z,13.05
2023-02-09T06:37:35.000Z,12.72
2023-02-09T06:42:34.000Z,13.11
2023-02-09T06:47:35.000Z,12.81
2023-02-09T06:52:35.000Z,12.87
2023-02-09T06:57:34.000Z,12.87
2023-02-09T07:02:35.000Z,12.85
2023-02-09T07:07:35.000Z,13.03
2023-02-09T07:12:34.000Z,12.92
2023-02-09T07:17:35.000Z,13.11
2023-02-09T07:22:34.000Z,12.55
2023-02-09T07:27:35.000Z,13.04
2023-02-09T07:32:34.000Z,13.81
2023-02-09T07:37:35.000Z,13.21
2023-02-09T07:42:34.000Z,13.06
2023-02-09T07:47:35.000Z,13.72
2023-02-09T07:52:34.000Z,14.4
2023-02-09T08:02:34.000Z,14.88
2023-02-09T08:07:34.000Z,14.76
2023-02-09T08:12:35.000Z,14.72
2023-02-09T08:17:34.000Z,15.39
2023-02-09T08:22:35.000Z,14.88
2023-02-09T08:27:34.000Z,15.07
2023-02-09T08:32:35.000Z,17.61
2023-02-09T08:37:34.000Z,15.35
2023-02-09T08:42:35.000Z,15.62
2023-02-09T08:47:35.000Z,17.48
2023-02-09T08:52:35.000Z,18.32
2023-02-09T08:57:51.000Z,19.01
2023-02-09T09:02:34.000Z,19.68
2023-02-09T09:07:35.000Z,20.4
2023-02-09T09:12:34.000Z,20.83
2023-02-09T09:17:35.000Z,20.83
2023-02-09T09:22:34.000Z,21.29
2023-02-09T09:27:37.000Z,20.28
2023-02-09T09:32:35.000Z,21.32
2023-02-09T09:37:35.000Z,21.48
2023-02-09T09:42:34.000Z,21.58
2023-02-09T09:47:35.000Z,20.96
2023-02-09T09:52:34.000Z,21.58
2023-02-09T10:02:35.000Z,22.07
2023-02-09T10:07:35.000Z,22.72
2023-02-09T10:12:34.000Z,24.9
2023-02-09T10:17:35.000Z,24.9
2023-02-09T10:22:35.000Z,22.74
2023-02-09T10:27:35.000Z,23.53
2023-02-09T10:32:35.000Z,23.67
2023-02-09T10:42:35.000Z,24.45
2023-02-09T10:47:35.000Z,24.16
2023-02-09T10:52:34.000Z,24.35
2023-02-09T10:57:35.000Z,24.73
2023-02-09T11:02:34.000Z,25.13
2023-02-09T11:07:34.000Z,24.79
2023-02-09T11:12:35.000Z,24.79
2023-02-09T11:17:35.000Z,25.96
2023-02-09T11:22:39.000Z,24.91
2023-02-09T11:27:35.000Z,24.78
2023-02-09T11:32:34.000Z,25.13
2023-02-09T11:37:34.000Z,25.39
2023-02-09T11:42:35.000Z,25.17
2023-02-09T11:47:35.000Z,26.15
2023-02-09T11:52:35.000Z,25.03
2023-02-09T11:57:34.000Z,25.3
2023-02-09T12:02:35.000Z,25
2023-02-09T12:07:35.000Z,25.04
2023-02-09T12:12:34.000Z,24.9
2023-02-09T12:17:35.000Z,24.11
2023-02-09T12:22:35.000Z,24.11
2023-02-09T12:27:35.000Z,24.56
2023-02-09T12:32:34.000Z,24.54
2023-02-09T12:37:39.000Z,24.18
2023-02-09T12:42:35.000Z,24.68
2023-02-09T12:47:34.000Z,24.48
2023-02-09T12:52:35.000Z,24.48
2023-02-09T13:02:35.000Z,24.27
2023-02-09T13:07:35.000Z,24.27
2023-02-09T13:12:35.000Z,30.45
2023-02-09T13:17:35.000Z,31.15
2023-02-09T13:22:34.000Z,29.64
2023-02-09T13:27:34.000Z,25.24
2023-02-09T13:32:35.000Z,24.02
2023-02-09T13:37:35.000Z,23.11
2023-02-09T13:42:35.000Z,23.34
2023-02-09T13:47:34.000Z,22.72
2023-02-09T13:52:34.000Z,23.07
2023-02-09T13:57:35.000Z,22.62
2023-02-09T14:02:35.000Z,22.3
2023-02-09T14:07:34.000Z,22.13
2023-02-09T14:12:35.000Z,21.92
2023-02-09T14:17:36.000Z,21.51
2023-02-09T14:22:34.000Z,21.19
2023-02-09T14:27:35.000Z,21.19
2023-02-09T14:32:43.000Z,21.05
2023-02-09T14:37:34.000Z,21.18
2023-02-09T14:42:35.000Z,21.11
2023-02-09T14:47:34.000Z,21.15
2023-02-09T14:52:35.000Z,20.5
2023-02-09T14:57:34.000Z,20.68
2023-02-09T15:02:35.000Z,21.28
2023-02-09T15:07:35.000Z,20.9
2023-02-09T15:12:35.000Z,21.36
2023-02-09T15:17:34.000Z,21.77
2023-02-09T15:22:35.000Z,21.34
2023-02-09T15:27:35.000Z,21.27
2023-02-09T15:32:35.000Z,21.52
2023-02-09T15:37:34.000Z,21.33
2023-02-09T15:42:35.000Z,20.67
2023-02-09T15:47:35.000Z,20.67
2023-02-09T15:52:35.000Z,20.83
2023-02-09T15:57:35.000Z,20.63
2023-02-09T16:02:35.000Z,21.01
2023-02-09T16:07:34.000Z,20.14
2023-02-09T16:12:34.000Z,20.15
2023-02-09T16:17:35.000Z,19.24
2023-02-09T16:22:35.000Z,19.09
2023-02-09T16:27:35.000Z,18.81
2023-02-09T16:32:35.000Z,19.32
2023-02-09T16:37:35.000Z,18.51
2023-02-09T16:42:35.000Z,17.44
2023-02-09T16:47:34.000Z,16.74
2023-02-09T16:52:34.000Z,17.71
2023-02-09T16:57:35.000Z,18.67
2023-02-09T17:02:35.000Z,18.67
2023-02-09T17:07:35.000Z,18.98
2023-02-09T17:12:35.000Z,18.16
2023-02-09T17:17:34.000Z,18.25
2023-02-09T17:22:35.000Z,17.91
2023-02-09T17:27:35.000Z,17.23
2023-02-09T17:32:35.000Z,15.63
2023-02-09T17:37:35.000Z,15.9
2023-02-09T17:42:35.000Z,15.72
2023-02-09T17:47:34.000Z,17.09
2023-02-09T17:52:35.000Z,18.18
2023-02-09T17:57:34.000Z,16.55
2023-02-09T18:02:35.000Z,15.83
2023-02-09T18:07:34.000Z,15.13
2023-02-09T18:12:35.000Z,15.13
2023-02-09T18:17:34.000Z,11.12
2023-02-09T18:22:35.000Z,9.8
2023-02-09T18:27:34.000Z,9.06
2023-02-09T18:32:35.000Z,9.59
2023-02-09T18:37:34.000Z,10.09
2023-02-09T18:42:35.000Z,10.19
2023-02-09T18:47:34.000Z,9.66
2023-02-09T18:52:35.000Z,9.19
2023-02-09T18:57:35.000Z,8.68
2023-02-09T19:02:35.000Z,9
2023-02-09T19:07:34.000Z,9.1
2023-02-09T19:12:34.000Z,9.23
2023-02-09T19:17:35.000Z,9.34
2023-02-09T19:22:34.000Z,9.3
2023-02-09T19:27:35.000Z,9.3
2023-02-09T19:32:34.000Z,9.06
2023-02-09T19:42:35.000Z,10.17
2023-02-09T19:47:34.000Z,10.24
2023-02-09T19:52:35.000Z,9.29
2023-02-09T19:57:34.000Z,9.42
2023-02-09T20:02:35.000Z,9.23
2023-02-09T20:07:35.000Z,9.22
2023-02-09T20:12:34.000Z,9.4
2023-02-09T20:17:35.000Z,9.65
2023-02-09T20:22:35.000Z,9.64
2023-02-09T20:27:35.000Z,9.98
2023-02-09T20:32:35.000Z,10
2023-02-09T20:37:35.000Z,10
2023-02-09T20:42:34.000Z,9.54
2023-02-09T20:47:35.000Z,9.33
2023-02-09T20:52:34.000Z,8.79
2023-02-09T20:57:35.000Z,8.46
2023-02-09T21:02:34.000Z,8.64
2023-02-09T21:07:35.000Z,8.46
2023-02-09T21:12:34.000Z,9.38
2023-02-09T21:17:35.000Z,8.66
2023-02-09T21:22:34.000Z,9.25
2023-02-09T21:27:35.000Z,9.34
2023-02-09T21:32:34.000Z,8.27
2023-02-09T21:37:34.000Z,8.23
2023-02-09T21:42:35.000Z,8.86
2023-02-09T21:47:35.000Z,9.22
2023-02-09T21:52:34.000Z,9.22
2023-02-09T21:57:35.000Z,8.3
2023-02-09T22:02:34.000Z,8.26
2023-02-09T22:07:35.000Z,7.87
2023-02-09T22:12:35.000Z,8.12
2023-02-09T22:17:35.000Z,7.92
2023-02-09T22:22:35.000Z,7.89
2023-02-09T22:27:35.000Z,8.08
2023-02-09T22:32:34.000Z,7.97
2023-02-09T22:37:35.000Z,8.66
2023-02-09T22:42:35.000Z,8.61
2023-02-09T22:47:34.000Z,8.3
2023-02-09T22:52:35.000Z,8.31
2023-02-09T22:57:34.000Z,8.94
2023-02-09T23:02:35.000Z,8.66
2023-02-09T23:07:34.000Z,8.66
2023-02-09T23:12:34.000Z,8.5
2023-02-09T23:17:35.000Z,8.94
2023-02-09T23:22:35.000Z,8.31
2023-02-09T23:27:34.000Z,8.77
2023-02-09T23:32:35.000Z,8.9
2023-02-09T23:37:47.000Z,8.9
2023-02-09T23:42:35.000Z,8.69
2023-02-09T23:47:35.000Z,8.65
2023-02-09T23:52:35.000Z,8.3
2023-02-09T23:57:35.000Z,8.86
